Time;durP1;ratioP1;P1;durP2;ratioP2;P2;SDS_P1;SDS_P2;PMS_P1;PMS_P2;Temp;Humidity;BMP_temperature;BMP_pressure;BME280_temperature;BME280_humidity;BME280_pressure;Samples;Min_cycle;Max_cycle;Signal;HPM_P1;HPM_P2
2023/05/11 00:01:04;;;;;;;3.73;2.70;;;12.00;99.90;;;12.00;89.28;97690.34;5078625;28;20433;-74
2023/05/11 00:03:31;;;;;;;3.00;2.63;;;12.00;99.90;;;11.82;89.88;97649.78;5084649;28;20439;-74
2023/05/11 00:05:59;;;;;;;4.93;2.50;;;12.00;99.90;;;11.96;91.93;97683.72;5089709;28;20549;-75
2023/05/11 00:08:27;;;;;;;3.63;3.07;;;12.00;99.90;;;12.02;91.98;97682.00;5101520;28;20458;-73
2023/05/11 00:10:55;;;;;;;3.80;3.50;;;12.00;99.90;;;11.92;92.81;97670.91;5090307;28;20459;-74
2023/05/11 00:13:22;;;;;;;3.70;2.83;;;12.00;99.90;;;12.08;92.92;97683.78;5068084;28;20456;-74
2023/05/11 00:15:49;;;;;;;5.17;3.37;;;12.10;99.90;;;12.12;92.99;97687.66;5088593;28;20443;-74
2023/05/11 00:18:16;;;;;;;4.00;3.20;;;12.10;99.90;;;12.08;93.35;97675.66;5095180;28;20516;-75
2023/05/11 00:20:44;;;;;;;3.73;3.33;;;12.20;99.90;;;12.08;92.29;97688.34;5071625;28;20539;-75
2023/05/11 00:23:11;;;;;;;3.73;3.37;;;12.20;99.90;;;12.02;93.03;97676.56;5078269;28;20456;-72
2023/05/11 00:25:40;;;;;;;4.80;3.53;;;12.20;99.90;;;11.88;92.62;97649.69;5069162;28;20474;-76
2023/05/11 00:28:07;;;;;;;3.93;3.20;;;12.10;99.90;;;11.89;93.18;97672.97;5072652;28;20536;-76
2023/05/11 00:30:34;;;;;;;4.37;3.97;;;12.10;99.90;;;11.70;92.79;97647.06;5076751;28;20470;-74
2023/05/11 00:33:01;;;;;;;3.93;3.53;;;12.00;99.90;;;11.97;92.94;97673.72;5087870;28;20448;-75
2023/05/11 00:35:30;;;;;;;5.40;3.93;;;12.00;99.90;;;12.12;91.64;97668.72;5080946;28;20809;-74
2023/05/11 00:37:57;;;;;;;4.37;3.97;;;12.10;99.90;;;11.79;91.68;97623.19;5080658;28;20467;-75
2023/05/11 00:40:25;;;;;;;3.97;3.50;;;12.10;99.90;;;11.97;91.81;97660.19;5072117;28;20459;-73
2023/05/11 00:42:55;;;;;;;3.73;3.27;;;12.10;99.90;;;12.00;91.59;97665.13;5076057;28;20604;-73
2023/05/11 00:45:22;;;;;;;3.60;3.30;;;12.00;99.90;;;11.89;91.94;97656.75;5066074;28;20456;-74
2023/05/11 00:47:49;;;;;;;5.23;3.77;;;12.00;99.90;;;11.89;93.29;97659.44;5086935;28;20822;-73
2023/05/11 00:50:18;;;;;;;5.37;3.63;;;12.00;99.90;;;11.84;92.49;97637.69;5071208;28;20470;-75
2023/05/11 00:52:45;;;;;;;4.20;3.80;;;12.00;99.90;;;11.95;92.56;97659.59;5067198;28;20441;-74
2023/05/11 00:55:14;;;;;;;3.67;3.20;;;12.00;99.90;;;11.83;93.18;97664.97;5080959;28;20556;-74
2023/05/11 00:57:41;;;;;;;5.13;3.60;;;11.90;99.90;;;11.84;92.60;97658.53;5082905;28;20461;-76
2023/05/11 01:00:11;;;;;;;4.00;3.70;;;11.90;99.90;;;11.95;92.87;97656.88;5077602;28;20460;-74
2023/05/11 01:02:39;;;;;;;3.63;3.33;;;11.90;99.90;;;11.91;92.38;97664.66;5091291;28;20540;-74
2023/05/11 01:05:08;;;;;;;4.23;3.83;;;12.00;99.90;;;11.87;92.34;97668.88;5089541;28;20447;-73
2023/05/11 01:07:45;;;;;;;5.60;3.13;;;12.00;99.90;;;11.83;92.36;97656.84;5066319;28;20518;-73
2023/05/11 01:10:21;;;;;;;5.03;3.83;;;12.00;99.90;;;11.95;92.66;97665.00;5085693;28;20467;-76
2023/05/11 01:12:58;;;;;;;3.90;2.67;;;12.00;99.90;;;11.92;92.80;97660.88;5085310;28;20506;-75
2023/05/11 01:15:35;;;;;;;3.30;2.97;;;12.00;99.90;;;11.90;93.73;97663.00;5049979;28;20465;-74
2023/05/11 01:18:12;;;;;;;3.97;3.50;;;11.90;99.90;;;11.86;94.45;97653.69;5070347;28;20501;-74
2023/05/11 01:20:43;;;;;;;4.40;3.50;;;11.90;99.90;;;11.86;93.68;97654.50;5081574;28;20453;-76
2023/05/11 01:23:44;;;;;;;3.93;3.53;;;11.90;99.90;;;11.92;93.53;97663.59;5089374;28;20453;-76
2023/05/11 01:26:34;;;;;;;4.03;3.30;;;11.90;99.90;;;11.86;91.07;97662.63;5063076;28;20444;-75
2023/05/11 01:29:42;;;;;;;3.77;3.47;;;11.80;99.90;;;11.83;92.37;97663.09;5086376;28;20489;-72
2023/05/11 01:32:17;;;;;;;5.00;3.40;;;11.80;99.90;;;11.88;92.79;97659.69;5042213;28;20453;-73
2023/05/11 01:34:46;;;;;;;4.83;3.53;;;11.80;99.90;;;11.87;93.51;97660.75;5078680;28;20503;-72
2023/05/11 01:37:19;;;;;;;3.40;3.10;;;11.90;99.90;;;11.85;92.87;97660.16;5066582;28;20503;-74
2023/05/11 01:39:52;;;;;;;4.73;3.87;;;11.80;99.90;;;11.89;93.07;97667.56;5084344;28;20549;-76
2023/05/11 01:42:36;;;;;;;4.00;3.37;;;11.80;99.90;;;11.84;93.38;97663.94;5081400;28;20789;-75
2023/05/11 01:45:06;;;;;;;3.63;3.30;;;11.80;99.90;;;11.87;92.77;97664.28;5055886;28;20509;-75
2023/05/11 01:47:37;;;;;;;5.80;3.53;;;11.90;99.90;;;11.84;93.21;97664.75;5082613;28;20455;-75
2023/05/11 01:50:08;;;;;;;4.17;3.03;;;11.80;99.90;;;11.81;93.26;97657.09;5064420;28;20858;-76
2023/05/11 01:52:37;;;;;;;4.40;3.57;;;11.80;99.90;;;11.71;92.29;97656.84;5066306;28;20455;-75
2023/05/11 01:55:06;;;;;;;3.90;3.13;;;11.80;99.90;;;11.66;93.88;97641.28;5069760;28;20451;-74
2023/05/11 01:57:36;;;;;;;4.77;3.50;;;11.70;99.90;;;11.54;93.21;97638.56;5065521;28;21242;-73
2023/05/11 02:00:06;;;;;;;4.97;3.63;;;11.70;99.90;;;11.46;93.69;97645.13;5075284;28;20470;-74
2023/05/11 02:02:36;;;;;;;5.67;4.20;;;11.60;99.90;;;11.58;94.57;97658.66;5088964;28;20466;-75
2023/05/11 02:05:07;;;;;;;5.30;3.97;;;11.60;99.90;;;11.65;94.25;97657.78;5074214;28;20490;-77
2023/05/11 02:07:36;;;;;;;4.53;4.07;;;11.70;99.90;;;11.60;94.91;97656.59;5070058;28;20524;-74
2023/05/11 02:10:04;;;;;;;4.10;3.67;;;11.60;99.90;;;11.61;95.42;97663.66;5076570;28;20468;-74
2023/05/11 02:12:34;;;;;;;5.77;4.27;;;11.60;99.90;;;11.46;95.88;97657.84;5087181;28;20462;-78
2023/05/11 02:15:03;;;;;;;5.57;4.20;;;11.60;99.90;;;11.51;95.62;97647.13;5066339;28;20555;-77
2023/05/11 02:17:32;;;;;;;5.97;3.47;;;11.60;99.90;;;11.60;95.31;97663.88;5081793;28;21116;-76
2023/05/11 02:20:03;;;;;;;3.87;3.50;;;11.60;99.90;;;11.56;94.77;97655.38;5083108;28;20495;-75
2023/05/11 02:22:32;;;;;;;4.30;3.80;;;11.60;99.90;;;11.62;94.95;97657.19;5065282;28;20444;-75
2023/05/11 02:24:59;;;;;;;4.00;3.50;;;11.60;99.90;;;11.52;93.86;97646.09;5080027;28;20543;-75
2023/05/11 02:27:26;;;;;;;4.33;3.80;;;11.60;99.90;;;11.52;94.46;97654.19;5065279;28;20495;-76
2023/05/11 02:29:54;;;;;;;5.33;4.20;;;11.50;99.90;;;11.39;95.02;97624.63;5082414;28;20471;-75
2023/05/11 02:32:24;;;;;;;5.23;3.70;;;11.60;99.90;;;11.51;95.45;97644.44;5080857;28;21029;-77
2023/05/11 02:35:00;;;;;;;5.10;3.77;;;11.60;99.90;;;11.65;94.11;97649.66;5073264;28;20451;-75
2023/05/11 02:37:30;;;;;;;5.00;3.90;;;11.60;99.90;;;11.61;93.35;97658.25;5086861;28;20450;-75
2023/05/11 02:40:03;;;;;;;4.13;3.73;;;11.60;99.90;;;11.49;94.68;97641.13;5080051;28;20455;-75
2023/05/11 02:42:38;;;;;;;4.50;3.60;;;11.60;99.90;;;11.65;94.22;97649.66;5074648;28;20447;-76
2023/05/11 02:45:09;;;;;;;5.00;3.90;;;11.60;99.90;;;11.61;94.23;97655.53;5068753;28;20535;-74
2023/05/11 02:47:39;;;;;;;4.77;3.87;;;11.60;99.90;;;11.64;95.12;97645.28;5064418;28;20455;-75
2023/05/11 02:50:10;;;;;;;4.40;3.80;;;11.60;99.90;;;11.18;95.21;97580.84;5068219;28;20944;-76
2023/05/11 02:52:42;;;;;;;4.77;4.10;;;11.60;99.90;;;11.19;93.59;97606.81;5086089;28;20502;-75
2023/05/11 02:55:11;;;;;;;5.80;4.23;;;11.50;99.90;;;11.40;94.29;97642.50;5064853;28;20573;-76
2023/05/11 02:57:39;;;;;;;4.87;3.77;;;11.50;99.90;;;11.33;93.59;97658.81;5095716;28;20453;-77
2023/05/11 03:00:09;;;;;;;4.00;3.27;;;11.50;99.90;;;11.33;93.35;97648.00;5057244;28;20451;-76
2023/05/11 03:02:36;;;;;;;4.67;4.23;;;11.40;99.90;;;11.37;93.39;97648.38;5082970;28;20797;-76
2023/05/11 03:05:04;;;;;;;4.60;3.60;;;11.40;99.90;;;11.20;94.38;97633.59;5067031;28;20815;-76
2023/05/11 03:07:33;;;;;;;4.77;3.90;;;11.40;99.90;;;11.34;93.75;97650.50;5083902;28;20957;-76
2023/05/11 03:10:01;;;;;;;5.20;3.70;;;11.40;99.90;;;11.31;94.16;97648.25;5074642;28;21054;-76
2023/05/11 03:12:31;;;;;;;3.53;3.20;;;11.40;99.90;;;11.30;94.96;97643.06;5072788;28;21135;-77
2023/05/11 03:14:59;;;;;;;4.60;3.90;;;11.40;99.90;;;11.37;93.84;97649.19;5081109;28;21278;-76
2023/05/11 03:17:28;;;;;;;5.90;3.53;;;11.40;99.90;;;11.40;94.49;97659.56;5088218;28;20453;-75
2023/05/11 03:19:56;;;;;;;4.30;3.80;;;11.40;99.90;;;11.31;93.70;97644.72;5091000;28;20538;-76
2023/05/11 03:22:25;;;;;;;4.80;3.30;;;11.40;99.90;;;11.33;93.77;97656.97;5060580;28;20789;-76
2023/05/11 03:24:56;;;;;;;5.30;3.40;;;11.30;99.90;;;11.31;94.18;97650.97;5065690;28;21003;-75
2023/05/11 03:27:26;;;;;;;5.80;3.17;;;11.30;99.90;;;11.31;94.31;97650.97;5070705;28;20944;-77
2023/05/11 03:29:54;;;;;;;5.63;3.90;;;11.40;99.90;;;11.30;94.70;97643.06;5093040;28;20545;-76
2023/05/11 03:32:21;;;;;;;4.17;3.60;;;11.30;99.90;;;11.18;93.76;97651.13;5083326;28;20871;-76
2023/05/11 03:34:50;;;;;;;3.80;3.40;;;11.30;99.90;;;11.03;94.63;97630.72;5071503;28;20465;-77
2023/05/11 03:37:19;;;;;;;4.20;3.80;;;11.30;99.90;;;11.15;94.68;97632.66;5072275;28;20455;-76
2023/05/11 03:39:52;;;;;;;3.90;3.50;;;11.20;99.90;;;11.20;95.00;97638.22;5090085;28;20458;-78
2023/05/11 03:42:22;;;;;;;4.37;3.97;;;11.30;99.90;;;11.21;94.69;97634.44;5063511;28;20458;-78
2023/05/11 03:44:54;;;;;;;5.00;3.67;;;11.30;99.90;;;11.33;94.46;97643.44;5068675;28;20460;-78
2023/05/11 03:47:27;;;;;;;4.40;4.00;;;11.30;99.90;;;11.29;94.39;97622.47;5085157;28;20467;-78
2023/05/11 03:49:57;;;;;;;4.67;4.10;;;11.40;99.90;;;11.23;93.50;97643.16;5067043;28;20976;-81
2023/05/11 03:52:25;;;;;;;4.27;3.67;;;11.30;99.90;;;11.16;93.24;97637.03;5089073;28;20447;-77
2023/05/11 03:54:52;;;;;;;3.90;3.50;;;11.20;99.90;;;11.16;93.79;97631.63;5074066;28;20554;-76
2023/05/11 03:57:25;;;;;;;4.80;3.20;;;11.20;99.90;;;11.20;94.81;97628.19;5070756;28;20447;-80
2023/05/11 03:59:52;;;;;;;4.70;4.10;;;11.20;99.90;;;11.18;94.93;97627.59;5067866;28;20548;-77
2023/05/11 04:02:20;;;;;;;3.60;3.30;;;11.30;99.90;;;11.16;93.54;97643.25;5083112;28;20463;-77
2023/05/11 04:04:48;;;;;;;4.70;3.30;;;11.20;99.90;;;11.14;94.83;97631.00;5069086;28;20795;-77
2023/05/11 04:07:15;;;;;;;4.23;3.90;;;11.20;99.90;;;11.21;94.17;97629.03;5086532;28;20455;-78
2023/05/11 04:09:42;;;;;;;6.33;3.47;;;11.20;99.90;;;11.15;93.96;97624.56;5061080;28;20512;-78
2023/05/11 04:12:10;;;;;;;5.53;3.80;;;11.20;99.90;;;11.24;94.41;97639.41;5065162;28;20462;-79
2023/05/11 04:14:42;;;;;;;3.23;2.87;;;11.20;99.90;;;11.29;94.20;97630.59;5083580;28;20485;-78
2023/05/11 04:17:10;;;;;;;4.07;3.67;;;11.20;99.90;;;11.30;95.08;97635.78;5068968;28;21084;-78
2023/05/11 04:19:39;;;;;;;4.00;3.60;;;11.20;99.90;;;11.27;95.89;97628.13;5068087;28;20455;-78
2023/05/11 04:22:08;;;;;;;3.93;3.20;;;11.30;99.90;;;11.36;96.03;97627.81;5068564;28;21125;-77
2023/05/11 04:24:35;;;;;;;4.10;3.60;;;11.40;99.90;;;11.39;96.71;97630.88;5064592;28;20458;-76
2023/05/11 04:27:02;;;;;;;3.30;3.00;;;11.40;99.90;;;11.35;95.07;97635.06;5066314;28;20447;-77
2023/05/11 04:29:30;;;;;;;3.47;3.17;;;11.40;99.90;;;11.37;93.89;97634.84;5072914;28;20509;-76
2023/05/11 04:31:59;;;;;;;7.27;3.60;;;11.40;99.90;;;11.25;95.66;97627.53;5063375;28;20456;-74
2023/05/11 04:34:26;;;;;;;4.20;3.80;;;11.40;99.90;;;11.31;93.70;97640.16;5081504;28;20482;-76
2023/05/11 04:36:53;;;;;;;4.60;3.30;;;11.40;99.90;;;11.24;93.79;97620.47;5082801;28;20515;-76
2023/05/11 04:39:20;;;;;;;3.70;2.97;;;11.40;99.90;;;11.11;91.47;97639.56;5075949;28;20463;-74
2023/05/11 04:41:47;;;;;;;5.43;3.77;;;11.30;99.90;;;11.17;91.99;97638.66;5076922;28;20463;-75
2023/05/11 04:44:15;;;;;;;4.37;2.60;;;11.20;99.90;;;11.19;91.19;97642.78;5069095;28;20455;-74
2023/05/11 04:46:42;;;;;;;11.53;3.30;;;11.30;99.90;;;11.02;90.27;97636.34;5091991;28;20512;-74
2023/05/11 04:49:10;;;;;;;4.50;3.47;;;11.30;99.90;;;11.18;90.98;97616.00;5074540;28;20845;-75
2023/05/11 04:51:38;;;;;;;3.87;2.93;;;11.30;99.90;;;11.40;90.89;97643.34;5083320;28;20506;-77
2023/05/11 04:54:05;;;;;;;2.93;2.63;;;11.40;99.90;;;11.42;89.19;97640.41;5079999;28;20958;-74
2023/05/11 04:56:32;;;;;;;4.70;3.00;;;11.50;99.90;;;11.40;89.13;97639.81;5085739;28;20542;-75
2023/05/11 04:59:00;;;;;;;3.43;2.83;;;11.40;99.90;;;11.55;89.06;97651.03;5071965;28;20520;-77
2023/05/11 05:01:27;;;;;;;3.87;3.47;;;11.60;99.90;;;11.50;89.20;97636.53;5071325;28;20450;-76
2023/05/11 05:03:54;;;;;;;3.60;3.30;;;11.60;99.90;;;11.34;89.59;97650.50;5068346;28;20451;-75
2023/05/11 05:06:24;;;;;;;4.03;3.03;;;11.40;99.90;;;11.37;90.15;97645.69;5066917;28;20534;-75
2023/05/11 05:08:52;;;;;;;3.90;3.13;;;11.40;99.90;;;11.53;88.84;97647.72;5058477;28;20448;-74
2023/05/11 05:11:20;;;;;;;3.70;3.30;;;11.50;99.90;;;11.30;89.14;97649.31;5062968;28;20878;-77
2023/05/11 05:13:47;;;;;;;4.20;3.43;;;11.40;99.90;;;11.52;90.10;97646.09;5087201;28;20512;-74
2023/05/11 05:16:14;;;;;;;4.03;3.23;;;11.50;99.90;;;11.70;88.85;97647.06;5071949;28;20470;-72
2023/05/11 05:18:42;;;;;;;3.87;2.73;;;11.70;99.90;;;11.70;88.19;97647.06;5091899;28;20856;-73
2023/05/11 05:21:09;;;;;;;2.93;2.63;;;11.70;99.90;;;11.76;88.11;97652.38;5058788;28;20561;-74
2023/05/11 05:23:37;;;;;;;3.30;2.50;;;11.70;99.90;;;11.75;88.04;97649.88;5065495;28;20447;-74
2023/05/11 05:26:04;;;;;;;2.80;2.20;;;11.80;99.90;;;11.68;87.11;97639.19;5061693;28;20524;-74
2023/05/11 05:28:33;;;;;;;4.30;2.73;;;11.80;99.90;;;11.58;86.89;97650.56;5085629;28;21059;-75
2023/05/11 05:31:02;;;;;;;3.03;2.10;;;11.70;99.00;;;11.50;87.24;97658.19;5068506;28;20473;-73
2023/05/11 05:33:30;;;;;;;3.80;2.63;;;11.60;98.80;;;11.51;87.50;97657.97;5084970;28;20455;-74
2023/05/11 05:35:58;;;;;;;3.00;2.70;;;11.60;99.90;;;11.45;87.28;97657.00;5077249;28;20452;-72
2023/05/11 05:38:25;;;;;;;3.20;2.90;;;11.60;99.90;;;11.39;87.20;97670.63;5068398;28;20565;-76
2023/05/11 05:40:54;;;;;;;3.83;3.00;;;11.60;99.00;;;11.28;88.00;97662.22;5085219;28;20550;-74
2023/05/11 05:43:21;;;;;;;4.00;2.70;;;11.50;99.90;;;11.27;88.17;97665.97;5080178;28;21069;-75
2023/05/11 05:45:48;;;;;;;3.53;2.60;;;11.40;99.90;;;11.29;88.57;97658.44;5089324;28;20452;-74
2023/05/11 05:48:15;;;;;;;3.43;3.13;;;11.50;99.90;;;11.27;89.34;97663.28;5075685;28;20961;-72
2023/05/11 05:50:43;;;;;;;4.70;3.07;;;11.40;99.90;;;11.16;89.04;97664.06;5081368;28;20479;-73
2023/05/11 05:53:10;;;;;;;2.90;2.60;;;11.40;99.90;;;11.29;90.60;97663.84;5084304;28;20551;-76
2023/05/11 05:55:37;;;;;;;5.63;2.60;;;11.50;99.90;;;11.27;89.79;97665.97;5070742;28;20819;-74
2023/05/11 05:58:06;;;;;;;3.43;2.90;;;11.40;99.90;;;11.32;90.24;97666.13;5073999;28;20454;-74
2023/05/11 06:00:33;;;;;;;3.10;2.70;;;11.50;99.90;;;11.42;90.42;97662.03;5091228;28;20961;-74
2023/05/11 06:03:00;;;;;;;2.77;2.20;;;11.60;99.90;;;11.41;90.97;97672.03;5088231;28;21230;-73
2023/05/11 06:05:28;;;;;;;4.27;3.10;;;11.60;99.90;;;11.30;90.11;97668.25;5061935;28;21174;-75
2023/05/11 06:07:55;;;;;;;4.93;2.77;;;11.50;99.90;;;11.24;90.69;97666.44;5053102;28;20448;-75
2023/05/11 06:10:22;;;;;;;2.70;2.37;;;11.40;99.90;;;11.34;91.39;97677.53;5081271;28;20464;-73
2023/05/11 06:12:50;;;;;;;5.37;3.00;;;11.50;99.90;;;11.45;91.13;97678.63;5079166;28;20638;-74
2023/05/11 06:15:18;;;;;;;5.03;3.60;;;11.50;99.90;;;11.51;90.33;97668.78;5081953;28;20446;-72
2023/05/11 06:17:45;;;;;;;2.97;2.67;;;11.60;99.90;;;11.58;89.92;97671.41;5071618;28;20464;-74
2023/05/11 06:20:13;;;;;;;2.77;2.43;;;11.70;99.90;;;11.84;89.41;97685.59;5087579;28;20530;-72
2023/05/11 06:22:40;;;;;;;2.97;2.70;;;11.80;99.90;;;11.70;87.27;97682.25;5087879;28;20444;-73
2023/05/11 06:25:08;;;;;;;3.87;3.07;;;11.90;99.50;;;11.69;88.31;97662.50;5094552;28;20459;-72
2023/05/11 06:27:35;;;;;;;3.87;2.60;;;11.90;99.90;;;11.76;87.84;97679.44;5092599;28;20931;-73
2023/05/11 06:30:03;;;;;;;4.47;2.60;;;11.90;99.90;;;11.58;87.68;97672.19;5099928;28;20513;-74
2023/05/11 06:32:31;;;;;;;3.00;2.47;;;11.70;99.90;;;11.68;89.19;97676.25;5096921;28;20479;-75
2023/05/11 06:34:58;;;;;;;2.73;2.53;;;11.70;99.90;;;11.76;87.93;97670.50;5094109;28;20509;-76
2023/05/11 06:37:29;;;;;;;2.83;2.57;;;11.90;99.90;;;11.75;88.12;97672.38;5084364;28;20457;-74
2023/05/11 06:39:56;;;;;;;4.23;3.80;;;11.90;99.90;;;11.98;88.61;97675.38;5090003;28;20451;-73
2023/05/11 06:42:24;;;;;;;3.50;2.53;;;12.00;99.90;;;11.90;87.14;97679.25;5093898;28;20473;-73
2023/05/11 06:44:52;;;;;;;3.50;2.93;;;12.10;99.30;;;11.98;88.15;97675.38;5087492;28;20458;-72
2023/05/11 06:47:20;;;;;;;2.90;2.70;;;12.10;99.90;;;12.10;88.18;97678.13;5064097;28;20503;-75
2023/05/11 06:49:49;;;;;;;3.50;2.77;;;12.10;99.90;;;11.80;86.26;97676.25;5080125;28;20470;-75
2023/05/11 06:52:16;;;;;;;3.20;2.90;;;12.10;97.60;;;11.77;86.70;97670.25;5067195;28;20474;-74
2023/05/11 06:54:43;;;;;;;5.77;3.00;;;12.00;98.70;;;11.64;86.81;97669.66;5084857;28;20503;-79
2023/05/11 06:57:11;;;;;;;3.13;2.83;;;11.90;98.40;;;11.82;87.19;97672.28;5087895;28;20521;-75
2023/05/11 06:59:38;;;;;;;3.50;2.63;;;11.90;99.90;;;11.71;86.63;97673.06;5078269;28;20459;-77
2023/05/11 07:02:05;;;;;;;2.90;2.70;;;11.90;98.20;;;11.86;87.31;97684.28;5065453;28;20462;-76
2023/05/11 07:04:32;;;;;;;3.70;2.70;;;11.90;99.50;;;12.03;86.96;97675.50;5064719;28;20457;-76
2023/05/11 07:07:02;;;;;;;2.70;2.50;;;12.00;99.90;;;12.00;86.33;97678.66;5062519;28;20451;-75
2023/05/11 07:09:30;;;;;;;3.00;2.70;;;12.10;98.60;;;12.05;85.77;97676.09;5056077;28;20465;-76
2023/05/11 07:11:58;;;;;;;3.10;2.80;;;12.20;97.90;;;12.11;85.60;97680.59;5069515;28;20485;-76
2023/05/11 07:14:26;;;;;;;3.00;2.80;;;12.20;98.30;;;12.00;85.97;97674.09;5063129;28;20453;-76
2023/05/11 07:16:54;;;;;;;3.70;2.50;;;12.20;98.30;;;11.94;85.61;97685.03;5084287;28;20508;-75
2023/05/11 07:19:22;;;;;;;3.07;2.43;;;12.10;97.10;;;11.98;85.87;97681.63;5082381;28;20462;-76
2023/05/11 07:21:51;;;;;;;4.33;2.63;;;12.10;97.90;;;11.93;85.72;97688.78;5066777;28;20882;-74
2023/05/11 07:24:19;;;;;;;3.80;3.10;;;12.10;97.10;;;11.92;86.33;97681.72;5065258;28;20524;-76
2023/05/11 07:26:49;;;;;;;3.13;2.60;;;12.00;98.30;;;12.12;87.20;97690.38;5071008;28;20951;-75
2023/05/11 07:29:17;;;;;;;3.27;2.70;;;12.10;99.90;;;11.79;86.75;97675.47;5093775;28;21018;-75
2023/05/11 07:31:44;;;;;;;3.27;2.97;;;12.10;98.10;;;11.83;86.29;97683.91;5062653;28;20474;-75
2023/05/11 07:34:11;;;;;;;3.20;2.73;;;12.10;98.20;;;11.66;86.83;97684.56;5088332;28;20451;-73
2023/05/11 07:36:38;;;;;;;2.60;2.40;;;11.90;98.10;;;11.61;87.92;97671.75;5076953;28;20492;-75
2023/05/11 07:39:05;;;;;;;2.73;2.53;;;11.80;99.90;;;11.94;88.38;97688.53;5084029;28;20941;-76
2023/05/11 07:41:34;;;;;;;3.47;2.47;;;12.00;99.90;;;11.97;86.41;97685.34;5082580;28;20459;-77
2023/05/11 07:44:01;;;;;;;4.03;2.40;;;12.10;98.70;;;11.98;87.17;97688.91;5089107;28;20458;-76
2023/05/11 07:46:29;;;;;;;3.10;2.80;;;12.10;99.40;;;12.03;87.38;97689.88;5079912;28;20470;-74
2023/05/11 07:48:57;;;;;;;3.63;3.33;;;12.20;99.60;;;12.00;87.03;97687.63;5091150;28;20451;-76
2023/05/11 07:51:24;;;;;;;7.20;2.77;;;12.20;99.20;;;11.87;86.74;97691.34;5083973;28;20983;-77
2023/05/11 07:53:52;;;;;;;2.87;2.40;;;12.10;98.30;;;11.76;87.73;97689.47;5080002;28;20458;-76
2023/05/11 07:56:20;;;;;;;2.30;2.10;;;12.00;99.00;;;11.90;87.95;97690.91;5066722;28;20443;-73
2023/05/11 07:58:49;;;;;;;2.93;2.63;;;12.00;99.90;;;11.40;87.94;97631.69;5080744;28;20454;-73
2023/05/11 08:01:16;;;;;;;3.83;2.63;;;12.10;99.90;;;11.87;88.99;97685.94;5063267;28;20948;-76
2023/05/11 08:03:44;;;;;;;4.70;2.63;;;12.00;99.90;;;11.92;87.56;97681.72;5064377;28;20448;-77
2023/05/11 08:06:11;;;;;;;2.93;2.47;;;12.10;99.90;;;11.82;88.36;97685.81;5066190;28;20561;-73
2023/05/11 08:08:39;;;;;;;4.77;3.10;;;12.00;99.90;;;11.75;87.40;97687.78;5059242;28;20452;-77
2023/05/11 08:11:06;;;;;;;2.87;2.67;;;11.90;99.90;;;11.94;87.84;97685.84;5066383;28;20510;-75
2023/05/11 08:13:34;;;;;;;2.60;2.40;;;12.00;99.90;;;12.13;87.65;97683.06;5084866;28;20548;-76
2023/05/11 08:16:02;;;;;;;4.20;3.10;;;12.10;99.90;;;12.09;86.99;97682.72;5063553;28;20547;-75
2023/05/11 08:18:30;;;;;;;3.70;3.40;;;12.20;99.90;;;12.19;87.88;97685.66;5061351;28;20505;-75
2023/05/11 08:20:57;;;;;;;3.03;2.70;;;12.20;99.90;;;12.22;86.84;97675.44;5084396;28;20656;-74
2023/05/11 08:23:24;;;;;;;4.47;2.87;;;12.40;99.90;;;12.19;86.20;97687.56;5075758;28;20460;-75
2023/05/11 08:25:54;;;;;;;3.40;2.77;;;12.40;98.00;;;12.12;87.15;97686.81;5084676;28;20551;-75
2023/05/11 08:28:22;;;;;;;5.90;3.40;;;12.40;98.60;;;12.15;88.24;97676.34;5089117;28;20468;-76
2023/05/11 08:30:55;;;;;;;3.27;2.80;;;12.30;99.90;;;12.06;86.94;97694.03;5046631;28;20472;-74
2023/05/11 08:33:26;;;;;;;3.83;3.43;;;12.30;98.30;;;11.99;88.46;97682.44;5083947;28;20994;-75
2023/05/11 08:35:53;;;;;;;3.17;2.77;;;12.20;99.90;;;11.61;87.43;97625.75;5084964;28;20464;-76
2023/05/11 08:38:21;;;;;;;3.03;2.80;;;12.20;99.90;;;12.06;86.97;97683.19;5072082;28;20446;-78
2023/05/11 08:40:52;;;;;;;3.13;2.90;;;12.20;99.50;;;12.03;86.78;97678.22;5086206;28;20484;-77
2023/05/11 08:43:19;;;;;;;3.30;3.00;;;12.20;99.00;;;12.07;86.73;97684.84;5077771;28;20505;-75
2023/05/11 08:45:51;;;;;;;3.70;3.33;;;12.20;98.90;;;12.00;86.83;97674.09;5074887;28;20452;-73
2023/05/11 08:48:19;;;;;;;4.53;3.43;;;12.20;98.70;;;11.77;86.92;97685.69;5089200;28;20550;-74
2023/05/11 08:50:48;;;;;;;3.57;3.20;;;12.10;97.50;;;11.76;87.67;97678.63;5085812;28;20463;-76
2023/05/11 08:53:15;;;;;;;3.03;2.70;;;12.00;98.80;;;11.85;87.73;97681.81;5072271;28;20508;-77
2023/05/11 08:55:43;;;;;;;6.13;2.70;;;12.00;99.90;;;11.96;87.83;97672.06;5065126;28;20451;-75
2023/05/11 08:58:13;;;;;;;4.45;3.67;;;12.10;99.90;;;12.19;87.38;97688.38;5081806;28;20452;-78
2023/05/11 09:00:41;;;;;;;4.20;3.60;;;12.30;99.90;;;12.04;86.71;97674.44;5063862;28;20624;-73
2023/05/11 09:03:10;;;;;;;3.63;3.07;;;12.30;98.50;;;12.07;87.09;97684.84;5063619;28;20453;-76
2023/05/11 09:05:38;;;;;;;3.73;3.43;;;12.30;99.20;;;12.12;86.89;97682.25;5075991;28;20455;-73
2023/05/11 09:08:08;;;;;;;4.57;3.60;;;12.30;98.40;;;12.27;88.24;97689.91;5060964;28;20459;-76
2023/05/11 09:10:36;;;;;;;3.80;3.40;;;12.40;99.90;;;12.31;87.56;97685.69;5078535;28;20469;-75
2023/05/11 09:13:03;;;;;;;3.83;3.50;;;12.50;99.90;;;12.26;87.82;97687.44;5075293;28;20880;-79
2023/05/11 09:15:30;;;;;;;3.80;3.50;;;12.40;99.90;;;12.26;87.85;97677.41;5076594;28;20504;-74
2023/05/11 09:17:58;;;;;;;4.00;3.50;;;12.40;99.90;;;12.19;87.51;97677.53;5073930;28;20935;-74
2023/05/11 09:20:30;;;;;;;4.50;4.00;;;12.40;99.40;;;11.88;88.20;97613.69;5079314;28;20466;-73
2023/05/11 09:22:58;;;;;;;5.07;3.97;;;12.50;99.90;;;12.30;87.86;97680.50;5064389;28;20819;-72
2023/05/11 09:25:31;;;;;;;3.83;3.50;;;12.50;99.90;;;12.55;87.80;97679.44;5080033;28;20455;-73
2023/05/11 09:27:59;;;;;;;4.53;3.90;;;12.60;99.90;;;12.81;87.36;97680.81;5064811;28;20453;-74
2023/05/11 09:30:27;;;;;;;5.83;4.10;;;12.80;99.90;;;12.77;85.94;97676.09;5065006;28;20464;-74
2023/05/11 09:32:57;;;;;;;5.67;3.80;;;12.90;98.70;;;12.59;85.83;97678.75;5065301;28;20476;-73
2023/05/11 09:35:27;;;;;;;8.43;4.23;;;12.70;98.10;;;12.52;86.71;97674.50;5083475;28;21189;-74
2023/05/11 09:38:01;;;;;;;4.97;4.47;;;12.70;98.70;;;12.28;85.60;97606.78;5057993;28;20467;-73
2023/05/11 09:40:32;;;;;;;4.30;3.87;;;12.70;98.80;;;12.61;87.41;97681.19;5080482;28;20454;-74
2023/05/11 09:43:00;;;;;;;4.07;3.60;;;12.70;99.90;;;12.58;86.55;97673.53;5060090;28;20508;-72
2023/05/11 09:45:42;;;;;;;5.40;3.50;;;12.70;99.20;;;12.28;86.95;97659.06;5076699;28;20953;-74
2023/05/11 09:48:25;;;;;;;5.00;4.50;;;12.50;98.60;;;12.37;87.18;97680.38;5077765;28;20463;-74
2023/05/11 09:51:01;;;;;;;4.40;3.47;;;12.50;99.00;;;12.03;86.68;97656.56;5082545;28;20550;-73
2023/05/11 09:53:37;;;;;;;4.83;4.40;;;12.40;98.60;;;11.90;87.46;97680.06;5063934;28;20468;-73
2023/05/11 09:56:06;;;;;;;5.33;4.60;;;12.20;98.90;;;11.91;88.90;97675.47;5078087;28;20646;-73
2023/05/11 09:58:50;;;;;;;5.23;4.73;;;12.10;99.90;;;12.07;89.33;97667.75;5067272;28;20494;-73
2023/05/11 10:01:19;;;;;;;8.83;5.00;;;12.20;99.90;;;12.15;89.43;97654.69;5078673;28;20451;-74
2023/05/11 10:03:50;;;;;;;4.80;4.40;;;12.40;99.90;;;12.29;88.31;97676.13;5079108;28;20770;-72
2023/05/11 10:06:17;;;;;;;5.17;4.67;;;12.40;99.90;;;12.28;88.21;97671.78;5073872;28;20540;-74
2023/05/11 10:08:45;;;;;;;5.27;4.77;;;12.40;99.90;;;11.98;87.84;97668.09;5077898;28;20467;-73
2023/05/11 10:11:14;;;;;;;5.43;4.90;;;12.30;99.10;;;12.00;88.60;97663.25;5061488;28;20443;-74
2023/05/11 10:13:43;;;;;;;6.33;5.00;;;12.20;99.90;;;11.77;88.33;97626.97;5082690;28;20500;-72
2023/05/11 10:16:13;;;;;;;4.40;4.00;;;12.30;99.90;;;12.25;88.23;97666.84;5086220;28;20518;-73
2023/05/11 10:18:42;;;;;;;6.17;5.00;;;12.40;99.90;;;12.12;89.35;97663.28;5084006;28;20450;-73
2023/05/11 10:21:11;;;;;;;5.60;4.70;;;12.30;99.90;;;12.16;88.84;97645.50;5078100;28;21286;-73
2023/05/11 10:23:38;;;;;;;5.80;5.20;;;12.40;99.90;;;12.41;89.65;97662.59;5085009;28;20793;-73
2023/05/11 10:26:06;;;;;;;5.97;5.27;;;12.50;99.90;;;12.32;88.91;97607.94;5062136;28;20966;-74
2023/05/11 10:28:34;;;;;;;5.30;4.87;;;12.70;99.90;;;12.75;88.28;97647.34;5062949;28;20549;-73